Map

Track Data

SID SEASON NUMBER BASIN SUBBASIN NAME ISO_TIME NATURE LAT LON WMO_WIND WMO_PRES WMO_AGENCY TRACK_TYPE DIST2LAND LANDFALL IFLAG USA_AGENCY USA_ATCF_ID USA_LAT USA_LON USA_RECORD USA_STATUS USA_WIND USA_PRES USA_SSHS USA_R34_NE USA_R34_SE USA_R34_SW USA_R34_NW USA_R50_NE USA_R50_SE USA_R50_SW USA_R50_NW USA_R64_NE USA_R64_SE USA_R64_SW USA_R64_NW USA_POCI USA_ROCI USA_RMW USA_EYE TOKYO_LAT TOKYO_LON TOKYO_GRADE TOKYO_WIND TOKYO_PRES TOKYO_R50_DIR TOKYO_R50_LONG TOKYO_R50_SHORT TOKYO_R30_DIR TOKYO_R30_LONG TOKYO_R30_SHORT TOKYO_LAND CMA_LAT CMA_LON CMA_CAT CMA_WIND CMA_PRES HKO_LAT HKO_LON HKO_CAT HKO_WIND HKO_PRES NEWDELHI_LAT NEWDELHI_LON NEWDELHI_GRADE NEWDELHI_WIND NEWDELHI_PRES NEWDELHI_CI NEWDELHI_DP NEWDELHI_POCI REUNION_LAT REUNION_LON REUNION_TYPE REUNION_WIND REUNION_PRES REUNION_TNUM REUNION_CI REUNION_RMW REUNION_R34_NE REUNION_R34_SE REUNION_R34_SW REUNION_R34_NW REUNION_R50_NE REUNION_R50_SE REUNION_R50_SW REUNION_R50_NW REUNION_R64_NE REUNION_R64_SE REUNION_R64_SW REUNION_R64_NW BOM_LAT BOM_LON BOM_TYPE BOM_WIND BOM_PRES BOM_TNUM BOM_CI BOM_RMW BOM_R34_NE BOM_R34_SE BOM_R34_SW BOM_R34_NW BOM_R50_NE BOM_R50_SE BOM_R50_SW BOM_R50_NW BOM_R64_NE BOM_R64_SE BOM_R64_SW BOM_R64_NW BOM_ROCI BOM_POCI BOM_EYE BOM_POS_METHOD BOM_PRES_METHOD NADI_LAT NADI_LON NADI_CAT NADI_WIND NADI_PRES WELLINGTON_LAT WELLINGTON_LON WELLINGTON_WIND WELLINGTON_PRES DS824_LAT DS824_LON DS824_STAGE DS824_WIND DS824_PRES TD9636_LAT TD9636_LON TD9636_STAGE TD9636_WIND TD9636_PRES TD9635_LAT TD9635_LON TD9635_WIND TD9635_PRES TD9635_ROCI NEUMANN_LAT NEUMANN_LON NEUMANN_CLASS NEUMANN_WIND NEUMANN_PRES MLC_LAT MLC_LON MLC_CLASS MLC_WIND MLC_PRES USA_GUST BOM_GUST BOM_GUST_PER REUNION_GUST REUNION_GUST_PER USA_SEAHGT USA_SEARAD_NE USA_SEARAD_SE USA_SEARAD_SW USA_SEARAD_NW STORM_SPEED STORM_DIR
1976232N32292 1976 96 NA NA CANDICE 1976-08-18 12:00:00 TS 31.7000 -68.2000 30 1007 hurdat_atl main 813 786 O_____________ hurdat_atl AL091976 31.7000 -68.2000 TD 30 1007 -1 17 17
1976232N32292 1976 96 NA NA CANDICE 1976-08-18 15:00:00 TS 32.5323 -67.8997 main 788 773 P_____________ AL091976 32.5323 -67.8997 TD 32 1005 -1 18 19
1976232N32292 1976 96 NA NA CANDICE 1976-08-18 18:00:00 TS 33.4000 -67.5000 35 1003 hurdat_atl main 777 774 O_____________ hurdat_atl AL091976 33.4000 -67.5000 TS 35 1003 0 20 24
1976232N32292 1976 96 NA NA CANDICE 1976-08-18 21:00:00 TS 34.3154 -66.9512 main 789 788 P_____________ AL091976 34.3154 -66.9512 TS 37 999 0 20 27
1976232N32292 1976 96 NA NA CANDICE 1976-08-19 00:00:00 TS 35.2000 -66.4000 40 996 hurdat_atl main 788 722 O_____________ hurdat_atl AL091976 35.2000 -66.4000 TS 40 996 0 19 24
1976232N32292 1976 96 NA NA CANDICE 1976-08-19 03:00:00 TS 36.0095 -66.0186 main 722 667 P_____________ AL091976 36.0095 -66.0186 TS 40 0 16 21
1976232N32292 1976 96 NA NA CANDICE 1976-08-19 06:00:00 TS 36.7000 -65.7000 40 hurdat_atl main 667 636 O_____________ hurdat_atl AL091976 36.7000 -65.7000 TS 40 0 14 22
1976232N32292 1976 96 NA NA CANDICE 1976-08-19 09:00:00 TS 37.2746 -65.3718 main 628 613 P_____________ AL091976 37.2746 -65.3718 TS 40 0 11 29
1976232N32292 1976 96 NA NA CANDICE 1976-08-19 12:00:00 TS 37.7000 -65.0000 40 hurdat_atl main 616 614 O_____________ hurdat_atl AL091976 37.7000 -65.0000 TS 40 0 10 45
1976232N32292 1976 96 NA NA CANDICE 1976-08-19 15:00:00 TS 37.9805 -64.4697 main 615 598 P_____________ AL091976 37.9805 -64.4697 TS 40 0 9 58
1976232N32292 1976 96 NA NA CANDICE 1976-08-19 18:00:00 TS 38.2000 -64.0000 40 999 hurdat_atl main 599 570 O_____________ hurdat_atl AL091976 38.2000 -64.0000 TS 40 999 0 7 47
1976232N32292 1976 96 NA NA CANDICE 1976-08-19 21:00:00 TS 38.4696 -63.8041 main 570 539 P_____________ AL091976 38.4696 -63.8041 TS 37 1002 0 6 21
1976232N32292 1976 96 NA NA CANDICE 1976-08-20 00:00:00 TS 38.8000 -63.7000 35 1005 hurdat_atl main 539 498 O_____________ hurdat_atl AL091976 38.8000 -63.7000 TS 35 1005 0 8 13
1976232N32292 1976 96 NA NA CANDICE 1976-08-20 03:00:00 TS 39.2569 -63.5744 main 488 454 P_____________ AL091976 39.2569 -63.5744 TS 35 1005 0 10 19
1976232N32292 1976 96 NA NA CANDICE 1976-08-20 06:00:00 TS 39.7000 -63.3000 35 1005 hurdat_atl main 454 443 O_____________ hurdat_atl AL091976 39.7000 -63.3000 TS 35 1005 0 10 43
1976232N32292 1976 96 NA NA CANDICE 1976-08-20 09:00:00 TS 39.9733 -62.6949 main 444 444 P_____________ AL091976 39.9733 -62.6949 TS 35 1003 0 11 63
1976232N32292 1976 96 NA NA CANDICE 1976-08-20 12:00:00 TS 40.2000 -62.0000 35 hurdat_atl main 457 451 I_____________ hurdat_atl AL091976 40.2000 -62.0000 TS 35 1001 0 11 60
1976232N32292 1976 96 NA NA CANDICE 1976-08-20 15:00:00 TS 40.5143 -61.4923 main 456 448 P_____________ AL091976 40.5143 -61.4923 TS 37 999 0 10 52
1976232N32292 1976 96 NA NA CANDICE 1976-08-20 18:00:00 TS 40.8000 -61.0000 40 997 hurdat_atl main 452 447 O_____________ hurdat_atl AL091976 40.8000 -61.0000 TS 40 997 0 10 61
1976232N32292 1976 96 NA NA CANDICE 1976-08-20 21:00:00 TS 40.9881 -60.3624 main 455 455 P_____________ AL091976 40.9881 -60.3624 TS 40 996 0 10 72
1976232N32292 1976 96 NA NA CANDICE 1976-08-21 00:00:00 TS 41.1000 -59.8000 40 hurdat_atl main 465 460 I_____________ hurdat_atl AL091976 41.1000 -59.8000 TS 40 995 0 7 73
1976232N32292 1976 96 NA NA CANDICE 1976-08-21 03:00:00 TS 41.1870 -59.4822 main 463 463 P_____________ AL091976 41.1870 -59.4822 TS 52 994 0 4 75
1976232N32292 1976 96 NA NA CANDICE 1976-08-21 06:00:00 TS 41.2000 -59.3000 65 993 hurdat_atl main 467 467 O_____________ hurdat_atl AL091976 41.2000 -59.3000 HU 65 993 1 3 99
1976232N32292 1976 96 NA NA CANDICE 1976-08-21 09:00:00 TS 41.1449 -59.1350 main 483 483 P_____________ AL091976 41.1449 -59.1350 HU 65 991 1 3 131
1976232N32292 1976 96 NA NA CANDICE 1976-08-21 12:00:00 TS 41.0000 -59.0000 65 989 hurdat_atl main 496 496 O_____________ hurdat_atl AL091976 41.0000 -59.0000 HU 65 989 1 4 152
1976232N32292 1976 96 NA NA CANDICE 1976-08-21 15:00:00 TS 40.7499 -58.8649 main 531 531 P_____________ AL091976 40.7499 -58.8649 HU 65 1 5 155
1976232N32292 1976 96 NA NA CANDICE 1976-08-21 18:00:00 TS 40.5000 -58.7000 65 hurdat_atl main 557 557 O_____________ hurdat_atl AL091976 40.5000 -58.7000 HU 65 1 5 144
1976232N32292 1976 96 NA NA CANDICE 1976-08-21 21:00:00 TS 40.3251 -58.4571 main 584 584 P_____________ AL091976 40.3251 -58.4571 HU 65 1 4 118
1976232N32292 1976 96 NA NA CANDICE 1976-08-22 00:00:00 TS 40.3000 -58.2000 65 hurdat_atl main 593 576 O_____________ hurdat_atl AL091976 40.3000 -58.2000 HU 65 1 4 60
1976232N32292 1976 96 NA NA CANDICE 1976-08-22 03:00:00 TS 40.5197 -58.0228 main 580 557 P_____________ AL091976 40.5197 -58.0228 HU 67 1 6 31
1976232N32292 1976 96 NA NA CANDICE 1976-08-22 06:00:00 TS 40.8000 -57.8000 70 hurdat_atl main 557 551 O_____________ hurdat_atl AL091976 40.8000 -57.8000 HU 70 1 6 49
1976232N32292 1976 96 NA NA CANDICE 1976-08-22 09:00:00 TS 40.9153 -57.4147 main 564 563 P_____________ AL091976 40.9153 -57.4147 HU 70 1 6 72
1976232N32292 1976 96 NA NA CANDICE 1976-08-22 12:00:00 TS 41.0000 -57.0000 70 hurdat_atl main 572 568 O_____________ hurdat_atl AL091976 41.0000 -57.0000 HU 70 1 6 68
1976232N32292 1976 96 NA NA CANDICE 1976-08-22 15:00:00 TS 41.1346 -56.7071 main 578 569 P_____________ AL091976 41.1346 -56.7071 HU 75 1 5 56
1976232N32292 1976 96 NA NA CANDICE 1976-08-22 18:00:00 TS 41.3000 -56.4000 80 964 hurdat_atl main 575 571 O_____________ hurdat_atl AL091976 41.3000 -56.4000 HU 80 964 1 6 58
1976232N32292 1976 96 NA NA CANDICE 1976-08-22 21:00:00 TS 41.4698 -55.9942 main 576 565 P_____________ AL091976 41.4698 -55.9942 HU 80 1 8 59
1976232N32292 1976 96 NA NA CANDICE 1976-08-23 00:00:00 TS 41.7000 -55.5000 80 hurdat_atl main 565 521 O_____________ hurdat_atl AL091976 41.7000 -55.5000 HU 80 1 10 55
1976232N32292 1976 96 NA NA CANDICE 1976-08-23 03:00:00 TS 42.0276 -54.9153 main 521 470 P_____________ AL091976 42.0276 -54.9153 HU 80 1 11 52
1976232N32292 1976 96 NA NA CANDICE 1976-08-23 06:00:00 TS 42.4000 -54.3000 80 hurdat_atl main 470 433 O_____________ hurdat_atl AL091976 42.4000 -54.3000 HU 80 1 11 50
1976232N32292 1976 96 NA NA CANDICE 1976-08-23 09:00:00 TS 42.7034 -53.8061 main 433 388 P_____________ AL091976 42.7034 -53.8061 HU 80 1 11 49
1976232N32292 1976 96 NA NA CANDICE 1976-08-23 12:00:00 TS 43.1000 -53.2000 80 hurdat_atl main 388 328 O_____________ hurdat_atl AL091976 43.1000 -53.2000 HU 80 1 15 48
1976232N32292 1976 96 NA NA CANDICE 1976-08-23 15:00:00 TS 43.6897 -52.3041 main 329 285 P_____________ AL091976 43.6897 -52.3041 HU 80 1 19 48
1976232N32292 1976 96 NA NA CANDICE 1976-08-23 18:00:00 TS 44.4000 -51.2000 80 971 hurdat_atl main 289 280 O_____________ hurdat_atl AL091976 44.4000 -51.2000 HU 80 971 1 22 48
1976232N32292 1976 96 NA NA CANDICE 1976-08-23 21:00:00 TS 45.1405 -50.0373 main 297 291 P_____________ AL091976 45.1405 -50.0373 HU 80 1 23 50
1976232N32292 1976 96 NA NA CANDICE 1976-08-24 00:00:00 TS 45.9000 -48.7000 80 hurdat_atl main 343 343 O_____________ hurdat_atl AL091976 45.9000 -48.7000 HU 80 1 25 56
1976232N32292 1976 96 NA NA CANDICE 1976-08-24 03:00:00 TS 46.5190 -47.1063 main 429 429 P_____________ AL091976 46.5190 -47.1063 HU 72 1 26 58
1976232N32292 1976 96 NA NA CANDICE 1976-08-24 06:00:00 TS 47.3000 -45.5000 65 hurdat_atl main 532 532 O_____________ hurdat_atl AL091976 47.3000 -45.5000 HU 65 1 28 46
1976232N32292 1976 96 NA NA CANDICE 1976-08-24 09:00:00 TS 48.4781 -44.1002 main 638 638 P_____________ AL091976 48.4781 -44.1002 HU 65 1 31 35
1976232N32292 1976 96 NA NA CANDICE 1976-08-24 12:00:00 TS 49.9000 -42.8000 65 hurdat_atl main 752 O_____________ hurdat_atl AL091976 49.9000 -42.8000 HU 65 1 33 31

About IBTrACS Database

This database is a web-friendly format of International Best Track Archive for Climate Stewardship (IBTrACS), a global best track data archive curated by NOAA dating back to 1842.

Updated: 2021-10-08